Time;durP1;ratioP1;P1;durP2;ratioP2;P2;SDS_P1;SDS_P2;PMS_P1;PMS_P2;Temp;Humidity;BMP_temperature;BMP_pressure;BME280_temperature;BME280_humidity;BME280_pressure;Samples;Min_cycle;Max_cycle;Signal;HPM_P1;HPM_P2
2021/05/01 00:00:03;;;;;;;5.37;3.15;;;;;;;11.08;76.34;97513.16;1788373;80;21573;-64
2021/05/01 00:02:35;;;;;;;5.67;3.55;;;;;;;11.04;77.23;97516.22;1787593;80;21136;-64
2021/05/01 00:05:05;;;;;;;8.58;3.35;;;;;;;11.00;77.80;97513.61;1788427;80;21652;-65
2021/05/01 00:07:33;;;;;;;4.47;2.67;;;;;;;10.95;77.55;97507.58;1788546;80;21294;-64
2021/05/01 00:10:00;;;;;;;5.45;3.02;;;;;;;10.88;77.71;97513.89;1788467;80;21212;-64
2021/05/01 00:12:29;;;;;;;7.92;2.83;;;;;;;10.84;77.06;97520.36;1788491;80;21620;-64
2021/05/01 00:14:57;;;;;;;3.58;2.33;;;;;;;10.82;77.29;97520.16;1788390;79;21211;-65
2021/05/01 00:17:25;;;;;;;3.00;2.05;;;;;;;10.81;77.37;97522.45;1788444;80;21155;-64
2021/05/01 00:19:53;;;;;;;4.62;2.83;;;;;;;10.78;77.03;97515.77;1788789;80;21652;-64
2021/05/01 00:22:21;;;;;;;4.55;2.90;;;;;;;10.76;77.42;97512.52;1785998;80;21136;-64
2021/05/01 00:24:49;;;;;;;6.37;3.15;;;;;;;10.75;77.89;97508.77;1782728;80;21152;-64
2021/05/01 00:27:17;;;;;;;5.70;3.30;;;;;;;10.72;79.94;97508.61;1782828;80;21305;-64
2021/05/01 00:29:45;;;;;;;5.70;2.90;;;;;;;10.69;78.95;97510.70;1782713;80;21152;-65
2021/05/01 00:32:13;;;;;;;3.58;2.67;;;;;;;10.69;79.06;97513.30;1782614;80;21633;-65
2021/05/01 00:34:41;;;;;;;4.70;2.52;;;;;;;10.67;78.93;97519.11;1782788;80;21267;-65
2021/05/01 00:37:09;;;;;;;4.78;2.47;;;;;;;10.68;79.31;97520.75;1782809;80;21291;-64
2021/05/01 00:39:38;;;;;;;4.28;2.42;;;;;;;10.67;78.57;97517.33;1782568;80;21577;-64
2021/05/01 00:42:06;;;;;;;3.83;2.37;;;;;;;10.72;78.81;97512.50;1782570;80;21148;-64
2021/05/01 00:44:34;;;;;;;3.80;2.30;;;;;;;10.76;78.85;97515.60;1782798;80;21386;-64
2021/05/01 00:47:02;;;;;;;4.53;2.33;;;;;;;10.79;78.47;97508.31;1782834;80;21302;-64
2021/05/01 00:49:31;;;;;;;2.05;1.72;;;;;;;10.85;78.56;97518.58;1782682;80;21156;-64
2021/05/01 00:51:59;;;;;;;6.78;2.62;;;;;;;10.89;78.51;97521.98;1782495;80;21255;-66
2021/05/01 00:54:27;;;;;;;5.28;2.80;;;;;;;10.90;78.56;97527.52;1782666;80;21586;-64
2021/05/01 00:56:59;;;;;;;3.62;2.42;;;;;;;10.92;79.16;97526.08;1782728;80;21633;-64
2021/05/01 00:59:27;;;;;;;3.77;2.60;;;;;;;10.89;78.98;97528.48;1782598;80;21624;-68
2021/05/01 01:01:56;;;;;;;3.58;2.10;;;;;;;10.84;79.42;97535.12;1782500;80;21121;-64
2021/05/01 01:04:24;;;;;;;4.62;2.70;;;;;;;10.80;79.24;97533.80;1782504;80;22318;-65
2021/05/01 01:06:53;;;;;;;6.58;2.67;;;;;;;10.79;79.47;97534.28;1782823;80;21293;-64
2021/05/01 01:09:23;;;;;;;4.25;2.52;;;;;;;10.80;79.04;97528.61;1782672;80;21148;-64
2021/05/01 01:11:51;;;;;;;4.08;2.70;;;;;;;10.83;79.26;97525.22;1782488;80;21144;-64
2021/05/01 01:14:19;;;;;;;5.28;3.00;;;;;;;10.77;80.68;97519.36;1782815;80;21297;-64
2021/05/01 01:16:47;;;;;;;5.12;3.22;;;;;;;10.68;80.94;97513.78;1782617;80;21565;-64
2021/05/01 01:19:16;;;;;;;4.40;2.75;;;;;;;10.73;79.99;97518.52;1782763;80;21113;-64
2021/05/01 01:21:46;;;;;;;4.03;3.15;;;;;;;10.74;79.74;97512.33;1782578;80;21223;-65
2021/05/01 01:24:15;;;;;;;5.85;3.08;;;;;;;10.75;79.70;97504.39;1788388;80;21588;-64
2021/05/01 01:26:43;;;;;;;4.65;3.22;;;;;;;10.73;80.17;97506.34;1788527;80;21168;-64
2021/05/01 01:29:14;;;;;;;5.55;3.27;;;;;;;10.73;79.52;97509.42;1788583;80;21317;-70
2021/05/01 01:31:43;;;;;;;5.55;2.75;;;;;;;10.76;79.17;97513.00;1788643;80;21129;-70
2021/05/01 01:34:11;;;;;;;5.30;3.52;;;;;;;10.80;79.22;97509.95;1788426;80;21151;-64
2021/05/01 01:36:39;;;;;;;4.67;2.98;;;;;;;10.77;79.03;97508.97;1788423;80;21155;-64
2021/05/01 01:39:07;;;;;;;3.45;2.37;;;;;;;10.77;79.35;97508.97;1788596;80;21285;-64
2021/05/01 01:41:35;;;;;;;5.72;3.52;;;;;;;10.78;79.08;97511.05;1788432;79;21568;-64
2021/05/01 01:44:09;;;;;;;5.17;2.92;;;;;;;10.72;79.41;97512.50;1788517;80;21568;-65
2021/05/01 01:46:37;;;;;;;4.65;2.67;;;;;;;10.73;79.63;97514.62;1787046;80;21163;-65
2021/05/01 01:49:05;;;;;;;4.90;2.33;;;;;;;10.72;79.55;97513.80;1788314;80;21160;-64
2021/05/01 01:51:33;;;;;;;4.22;2.60;;;;;;;10.73;79.39;97509.42;1760053;80;21167;-64
2021/05/01 01:54:01;;;;;;;3.67;2.17;;;;;;;10.74;79.67;97512.33;1788378;80;21568;-70
2021/05/01 01:56:29;;;;;;;3.92;2.17;;;;;;;10.70;80.01;97507.93;1788605;80;21289;-71
2021/05/01 01:58:57;;;;;;;3.65;2.85;;;;;;;10.70;79.76;97522.22;1788497;80;21548;-71
2021/05/01 02:01:26;;;;;;;3.70;2.47;;;;;;;10.70;79.95;97519.61;1788335;80;21601;-70
2021/05/01 02:03:54;;;;;;;4.67;2.75;;;;;;;10.65;80.04;97528.86;1788559;80;21353;-71
2021/05/01 02:06:22;;;;;;;2.50;1.98;;;;;;;10.64;79.86;97525.92;1788370;80;21565;-70
2021/05/01 02:08:50;;;;;;;2.33;1.47;;;;;;;10.65;80.59;97539.23;1788455;80;21648;-70
2021/05/01 02:11:18;;;;;;;2.70;1.90;;;;;;;10.65;80.51;97541.36;1788495;80;21552;-70
2021/05/01 02:13:47;;;;;;;2.90;1.98;;;;;;;10.66;80.63;97544.77;1788455;80;21214;-71
2021/05/01 02:16:14;;;;;;;2.02;1.60;;;;;;;10.66;80.32;97546.07;1788590;80;21151;-70
2021/05/01 02:18:43;;;;;;;3.08;2.20;;;;;;;10.67;80.12;97556.28;1788286;79;21173;-71
2021/05/01 02:21:12;;;;;;;3.58;1.95;;;;;;;10.66;80.18;97557.25;1788484;80;21143;-70
2021/05/01 02:23:40;;;;;;;4.08;2.00;;;;;;;10.68;79.89;97568.31;1784891;80;21227;-64
2021/05/01 02:26:08;;;;;;;3.10;1.67;;;;;;;10.67;80.32;97570.57;1782568;80;21545;-64
2021/05/01 02:28:36;;;;;;;5.42;1.80;;;;;;;10.69;79.59;97567.83;1782491;80;21180;-64
2021/05/01 02:31:04;;;;;;;4.97;2.50;;;;;;;10.72;78.90;97565.73;1782770;80;21160;-64
2021/05/01 02:33:32;;;;;;;4.28;2.22;;;;;;;10.75;78.50;97566.73;1783004;80;21147;-64
2021/05/01 02:36:00;;;;;;;4.92;2.15;;;;;;;10.78;78.49;97572.09;1783281;80;21267;-64
2021/05/01 02:38:29;;;;;;;5.45;2.62;;;;;;;10.79;78.03;97576.33;1782844;80;21164;-65
2021/05/01 02:40:57;;;;;;;2.75;2.10;;;;;;;10.80;78.09;97578.78;1783016;80;21576;-65
2021/05/01 02:43:25;;;;;;;3.58;1.92;;;;;;;10.79;78.38;97582.34;1782575;80;21140;-64
2021/05/01 02:45:53;;;;;;;2.42;1.32;;;;;;;10.77;78.52;97584.77;1782881;80;21700;-64
2021/05/01 02:48:21;;;;;;;2.47;1.77;;;;;;;10.76;78.61;97582.65;1782446;80;21545;-65
2021/05/01 02:50:51;;;;;;;4.22;1.85;;;;;;;10.77;78.63;97584.28;1782608;80;21585;-70
2021/05/01 02:53:19;;;;;;;2.65;1.87;;;;;;;10.73;79.38;97588.16;1782522;80;21139;-70
2021/05/01 02:55:48;;;;;;;7.05;1.70;;;;;;;10.74;79.42;97577.25;1782561;80;21144;-71
2021/05/01 02:58:17;;;;;;;5.08;1.98;;;;;;;10.77;79.16;97545.33;1782675;80;21156;-71
2021/05/01 03:00:45;;;;;;;2.37;1.72;;;;;;;10.77;79.96;97545.81;1782519;80;21569;-70
2021/05/01 03:03:13;;;;;;;2.27;1.60;;;;;;;10.80;79.65;97554.59;1782741;80;21268;-71
2021/05/01 03:05:41;;;;;;;2.70;1.42;;;;;;;10.82;79.26;97557.34;1782657;80;21144;-70
2021/05/01 03:08:09;;;;;;;2.47;1.70;;;;;;;10.83;79.95;97555.09;1782481;80;21141;-72
2021/05/01 03:10:37;;;;;;;5.33;2.17;;;;;;;10.87;79.01;97555.11;1782677;80;21553;-71
2021/05/01 03:13:05;;;;;;;5.78;2.33;;;;;;;10.88;78.96;97559.34;1782590;80;21121;-71
2021/05/01 03:15:33;;;;;;;2.90;2.02;;;;;;;10.90;79.84;97550.90;1782440;80;21163;-72
2021/05/01 03:18:01;;;;;;;2.77;1.98;;;;;;;10.88;79.89;97555.93;1782560;80;21580;-72
2021/05/01 03:20:30;;;;;;;3.02;1.45;;;;;;;10.86;80.23;97551.36;1782663;80;21167;-71
2021/05/01 03:22:57;;;;;;;4.37;2.12;;;;;;;10.87;79.94;97549.91;1782683;79;21179;-71
2021/05/01 03:25:25;;;;;;;3.83;2.37;;;;;;;10.91;79.39;97559.03;1782508;80;21144;-71
2021/05/01 03:27:54;;;;;;;3.80;2.12;;;;;;;10.92;80.09;97547.68;1752658;80;21232;-72
2021/05/01 03:30:21;;;;;;;3.00;1.75;;;;;;;10.94;79.37;97549.63;1782513;80;21155;-72
2021/05/01 03:32:49;;;;;;;3.87;1.82;;;;;;;10.97;80.19;97551.59;1782669;80;21192;-72
2021/05/01 03:35:18;;;;;;;1.87;1.32;;;;;;;11.00;80.35;97550.80;1782707;80;21349;-72
2021/05/01 03:37:45;;;;;;;3.12;1.50;;;;;;;11.04;80.43;97560.39;1782541;80;21644;-71
2021/05/01 03:40:15;;;;;;;2.25;1.27;;;;;;;11.11;79.93;97554.90;1782686;80;21588;-72
2021/05/01 03:42:43;;;;;;;3.90;1.77;;;;;;;11.15;80.01;97549.24;1782535;80;21140;-71
2021/05/01 03:47:53;;;;;;;2.85;1.50;;;;;;;11.27;79.52;97547.17;1712943;83;21581;-71
2021/05/01 03:50:21;;;;;;;1.90;1.52;;;;;;;11.37;79.21;97547.84;1713031;83;21239;-71
2021/05/01 03:52:49;;;;;;;1.82;1.55;;;;;;;11.42;79.58;97546.90;1713036;83;21176;-71
2021/05/01 03:55:17;;;;;;;4.95;1.40;;;;;;;11.48;80.02;97541.56;1713013;83;21704;-72
2021/05/01 03:57:46;;;;;;;2.42;1.67;;;;;;;11.46;81.67;97537.00;1712000;83;21176;-72
2021/05/01 04:00:36;;;;;;;3.00;1.65;;;;;;;11.53;81.11;97529.70;1712860;83;21183;-72
2021/05/01 04:03:05;;;;;;;5.00;2.60;;;;;;;11.61;80.13;97532.80;1683037;84;21174;-72
2021/05/01 04:05:33;;;;;;;5.15;2.33;;;;;;;11.61;80.65;97536.22;1683038;84;21585;-71
2021/05/01 04:08:01;;;;;;;4.45;2.62;;;;;;;11.63;80.78;97532.99;1683103;84;21208;-72
2021/05/01 04:10:29;;;;;;;4.83;2.42;;;;;;;11.67;80.63;97530.38;1683089;84;21563;-71
2021/05/01 04:12:57;;;;;;;2.83;2.15;;;;;;;11.61;82.50;97529.72;1683012;85;21657;-71
2021/05/01 04:15:27;;;;;;;4.05;2.45;;;;;;;11.54;83.05;97531.81;1682894;84;21177;-71
2021/05/01 04:17:56;;;;;;;3.95;2.35;;;;;;;11.53;82.83;97531.00;1683013;84;21640;-71
2021/05/01 04:20:24;;;;;;;7.85;2.65;;;;;;;11.62;82.21;97531.84;1683161;85;21314;-65
2021/05/01 04:22:52;;;;;;;3.60;2.62;;;;;;;11.65;81.86;97519.81;1682933;84;21168;-65
2021/05/01 04:25:21;;;;;;;4.83;2.55;;;;;;;11.52;83.24;97509.05;1683151;84;21712;-72
2021/05/01 04:27:48;;;;;;;4.03;2.40;;;;;;;11.42;84.33;97506.13;1683070;84;21175;-73
2021/05/01 04:30:17;;;;;;;3.58;2.37;;;;;;;11.54;83.76;97509.23;1683167;84;21173;-71
2021/05/01 04:32:48;;;;;;;2.62;2.27;;;;;;;11.65;82.67;97508.92;1683225;84;21311;-64
2021/05/01 04:35:16;;;;;;;5.20;2.65;;;;;;;11.78;82.18;97517.11;1683137;85;21350;-65
2021/05/01 04:37:44;;;;;;;3.87;2.40;;;;;;;11.74;82.37;97509.30;1682986;84;21609;-66
2021/05/01 04:40:14;;;;;;;2.90;2.45;;;;;;;11.79;82.45;97525.22;1682907;84;21240;-65
2021/05/01 04:42:51;;;;;;;3.00;2.27;;;;;;;11.89;81.99;97535.01;1683111;84;21295;-64
2021/05/01 04:45:20;;;;;;;5.53;2.72;;;;;;;12.00;81.50;97540.38;1682977;85;21180;-72
2021/05/01 04:47:48;;;;;;;4.47;2.58;;;;;;;12.08;81.27;97526.55;1683066;85;21319;-72
2021/05/01 04:50:16;;;;;;;5.33;3.10;;;;;;;12.12;81.26;97526.07;1642463;85;21153;-73
2021/05/01 04:52:45;;;;;;;3.77;2.77;;;;;;;12.18;81.20;97524.59;1682903;84;21244;-73
2021/05/01 04:55:13;;;;;;;5.28;3.12;;;;;;;12.21;81.43;97521.20;1682978;84;21630;-72
2021/05/01 04:57:44;;;;;;;5.50;3.70;;;;;;;12.29;81.34;97519.08;1683106;84;21783;-72
2021/05/01 05:00:15;;;;;;;6.62;3.58;;;;;;;12.48;80.97;97516.13;1683254;84;21197;-73
2021/05/01 05:02:43;;;;;;;4.10;2.77;;;;;;;12.56;80.74;97517.41;1699241;83;21171;-72
2021/05/01 05:05:14;;;;;;;2.45;1.98;;;;;;;12.66;80.12;97515.43;1703741;84;21605;-71
2021/05/01 05:07:42;;;;;;;3.30;2.55;;;;;;;12.67;79.56;97507.13;1749656;81;21223;-71
2021/05/01 05:10:13;;;;;;;5.00;1.98;;;;;;;12.61;79.57;97504.69;1749629;80;21184;-66
2021/05/01 05:12:42;;;;;;;7.00;2.80;;;;;;;12.58;79.28;97512.02;1749841;80;21220;-64
2021/05/01 05:15:11;;;;;;;5.47;2.65;;;;;;;12.61;79.53;97511.20;1749535;80;21148;-64
2021/05/01 05:17:39;;;;;;;5.80;3.90;;;;;;;12.70;79.37;97524.53;1749571;80;21168;-64
2021/05/01 05:20:09;;;;;;;4.72;2.62;;;;;;;12.71;79.29;97524.05;1749666;80;21313;-64
2021/05/01 05:22:37;;;;;;;4.30;3.10;;;;;;;12.77;78.92;97524.67;1749516;82;21181;-64
2021/05/01 05:25:06;;;;;;;5.22;3.30;;;;;;;12.65;79.66;97516.88;1749544;81;21198;-64
2021/05/01 05:27:34;;;;;;;4.05;3.17;;;;;;;12.73;79.35;97525.50;1749694;80;21317;-65
2021/05/01 05:30:04;;;;;;;6.55;3.62;;;;;;;12.85;78.68;97519.45;1749552;82;21148;-67
2021/05/01 05:32:32;;;;;;;6.70;3.60;;;;;;;12.88;78.62;97519.62;1749511;80;21350;-64
2021/05/01 05:35:00;;;;;;;9.23;4.20;;;;;;;13.05;79.13;97513.35;1749793;81;21715;-65
2021/05/01 05:37:28;;;;;;;6.92;4.00;;;;;;;13.19;78.72;97519.21;1749575;82;21239;-66
2021/05/01 05:39:57;;;;;;;6.58;4.17;;;;;;;13.33;77.44;97515.87;1749565;82;21157;-66
2021/05/01 05:42:25;;;;;;;7.12;4.22;;;;;;;13.48;77.31;97510.25;1749519;80;21211;-67
2021/05/01 05:44:53;;;;;;;4.83;3.77;;;;;;;13.58;76.93;97510.05;1749541;82;21165;-69
2021/05/01 05:47:21;;;;;;;6.78;4.58;;;;;;;13.75;76.03;97508.94;1749766;80;21506;-71
2021/05/01 05:49:49;;;;;;;6.10;4.58;;;;;;;13.90;75.60;97511.60;1724601;82;21598;-73
2021/05/01 05:52:19;;;;;;;11.60;5.25;;;;;;;14.01;74.61;97515.11;1749591;82;21605;-66
2021/05/01 05:54:46;;;;;;;6.37;4.50;;;;;;;14.07;73.64;97518.34;1749717;80;21298;-73
2021/05/01 05:57:14;;;;;;;5.83;3.67;;;;;;;14.10;73.54;97511.45;1749681;82;21184;-73
2021/05/01 05:59:43;;;;;;;6.65;3.42;;;;;;;14.17;73.55;97507.97;1749762;82;21133;-73
2021/05/01 06:02:18;;;;;;;6.33;3.72;;;;;;;14.23;73.25;97522.13;1758031;80;21553;-72
2021/05/01 06:05:07;;;;;;;4.80;3.22;;;;;;;14.30;72.37;97527.45;1768333;80;21183;-73
2021/05/01 06:07:43;;;;;;;5.37;3.72;;;;;;;14.39;72.68;97514.68;1768219;80;21336;-71
2021/05/01 06:10:25;;;;;;;5.37;3.87;;;;;;;14.31;72.50;97510.31;1761630;80;21291;-72
2021/05/01 06:12:53;;;;;;;7.00;4.15;;;;;;;14.22;72.86;97510.05;1761696;80;21188;-72
2021/05/01 06:15:22;;;;;;;7.70;4.83;;;;;;;14.15;73.12;97490.86;1761682;80;21160;-71
2021/05/01 06:17:55;;;;;;;7.53;4.40;;;;;;;14.28;73.15;97492.87;1761791;80;21125;-73
2021/05/01 06:20:23;;;;;;;8.73;3.52;;;;;;;14.37;73.06;97499.17;1761591;80;21597;-73
2021/05/01 06:22:52;;;;;;;4.85;3.55;;;;;;;14.49;73.36;97499.06;1761650;80;21132;-73
2021/05/01 06:25:21;;;;;;;5.50;3.15;;;;;;;14.81;72.84;97498.41;1761618;80;21589;-73
2021/05/01 06:27:53;;;;;;;6.25;3.22;;;;;;;14.90;72.42;97505.18;1761589;80;21197;-67
2021/05/01 06:30:23;;;;;;;6.08;2.98;;;;;;;15.00;72.15;97507.02;1761710;80;21228;-73
2021/05/01 06:32:52;;;;;;;8.10;4.47;;;;;;;15.13;71.59;97491.01;1761782;80;21578;-73
2021/05/01 06:35:21;;;;;;;5.40;3.90;;;;;;;15.21;71.80;97492.71;1761741;80;21551;-73
2021/05/01 06:37:52;;;;;;;6.97;4.45;;;;;;;15.41;71.89;97497.66;1761798;80;21232;-73
2021/05/01 06:40:25;;;;;;;5.78;3.80;;;;;;;15.53;71.47;97498.83;1761597;80;21168;-73
2021/05/01 06:43:01;;;;;;;4.28;3.00;;;;;;;15.55;71.73;97500.78;1761502;80;21148;-72
2021/05/01 06:45:32;;;;;;;7.45;3.67;;;;;;;15.52;72.10;97499.84;1761747;80;21264;-71
2021/05/01 06:48:04;;;;;;;7.05;3.47;;;;;;;15.47;72.78;97500.05;1761649;80;21149;-72
2021/05/01 06:50:33;;;;;;;4.67;2.80;;;;;;;15.48;72.59;97502.48;1761753;80;21214;-73
2021/05/01 06:53:02;;;;;;;4.50;2.47;;;;;;;15.48;72.46;97494.64;1761530;80;21153;-72
2021/05/01 06:55:33;;;;;;;3.20;2.75;;;;;;;15.48;72.70;97493.33;1761516;80;21148;-71
2021/05/01 06:58:04;;;;;;;6.78;4.22;;;;;;;15.60;72.54;97489.77;1761631;80;21153;-65
2021/05/01 07:00:32;;;;;;;4.58;3.25;;;;;;;15.64;72.82;97489.18;1761696;80;21156;-65
2021/05/01 07:03:06;;;;;;;5.85;3.42;;;;;;;15.78;72.37;97494.06;1761601;80;21220;-71
2021/05/01 07:05:56;;;;;;;5.62;3.50;;;;;;;15.82;72.59;97503.66;1761453;80;21192;-72
2021/05/01 07:08:28;;;;;;;3.87;2.62;;;;;;;15.84;72.59;97502.97;1795155;80;21139;-73
2021/05/01 07:10:56;;;;;;;4.00;3.20;;;;;;;15.93;72.15;97502.66;1795175;79;21548;-73
2021/05/01 07:13:25;;;;;;;8.53;3.27;;;;;;;15.95;72.30;97510.34;1794978;79;21183;-72
2021/05/01 07:16:00;;;;;;;4.42;2.90;;;;;;;15.86;73.24;97512.77;1795152;79;21147;-72
2021/05/01 07:18:25;;;;;;;3.75;2.77;;;;;;;15.85;73.85;97508.52;1794806;79;21146;-73
2021/05/01 07:20:58;;;;;;;4.75;2.80;;;;;;;15.93;73.49;97511.83;1795144;79;21160;-66
2021/05/01 07:23:27;;;;;;;6.65;2.75;;;;;;;16.01;73.31;97505.66;1795058;79;21200;-70
2021/05/01 07:25:54;;;;;;;4.90;2.27;;;;;;;16.12;73.00;97514.31;1795027;79;21589;-66
2021/05/01 07:28:26;;;;;;;5.05;2.27;;;;;;;16.21;72.98;97533.34;1795179;80;21206;-66
2021/05/01 07:30:57;;;;;;;7.83;2.92;;;;;;;16.28;73.09;97559.91;1795170;79;21214;-66
2021/05/01 07:33:42;;;;;;;5.22;3.02;;;;;;;16.32;73.22;97601.77;1794982;80;21124;-66
2021/05/01 07:36:14;;;;;;;6.60;3.17;;;;;;;16.27;72.92;97621.16;1795100;80;21168;-68
2021/05/01 07:38:44;;;;;;;5.60;3.00;;;;;;;16.20;75.04;97617.67;1794986;79;21135;-66
2021/05/01 07:41:15;;;;;;;4.50;2.98;;;;;;;16.03;74.79;97625.47;1794939;80;21139;-66
2021/05/01 07:43:49;;;;;;;7.20;2.65;;;;;;;16.05;74.82;97610.36;1795198;79;21124;-73
2021/05/01 07:46:22;;;;;;;5.47;3.02;;;;;;;16.03;75.94;97610.53;1795073;79;21144;-73
2021/05/01 07:48:50;;;;;;;4.75;3.22;;;;;;;16.06;76.69;97598.40;1794639;80;21132;-66
2021/05/01 07:51:22;;;;;;;8.75;3.92;;;;;;;16.10;77.58;97587.05;1795354;79;21183;-67
2021/05/01 07:53:52;;;;;;;7.37;3.85;;;;;;;16.05;78.35;97578.93;1795105;79;21152;-67
2021/05/01 07:56:20;;;;;;;9.58;5.08;;;;;;;15.92;81.78;97574.85;1795031;80;21596;-67
2021/05/01 07:58:47;;;;;;;7.40;3.60;;;;;;;15.99;81.85;97565.28;1795025;80;21178;-67
2021/05/01 08:01:15;;;;;;;6.37;3.72;;;;;;;16.05;83.03;97557.98;1795070;80;21561;-67
2021/05/01 08:03:44;;;;;;;6.70;4.12;;;;;;;16.17;82.42;97547.81;1795346;79;21608;-67
2021/05/01 08:06:12;;;;;;;11.83;4.10;;;;;;;16.28;82.15;97541.56;1794968;78;21100;-67
2021/05/01 08:08:40;;;;;;;10.58;6.87;;;;;;;16.30;82.61;97537.46;1771135;80;21623;-66
2021/05/01 08:11:08;;;;;;;8.20;4.20;;;;;;;16.47;81.34;97527.81;1795214;80;21164;-66
2021/05/01 08:13:36;;;;;;;6.37;2.25;;;;;;;16.70;79.35;97530.72;1795156;80;21175;-66
2021/05/01 08:16:05;;;;;;;7.30;2.77;;;;;;;16.78;77.82;97526.64;1795037;80;21108;-66
2021/05/01 08:18:34;;;;;;;3.52;2.10;;;;;;;16.83;77.52;97516.39;1795087;80;21176;-66
2021/05/01 08:21:02;;;;;;;3.95;2.77;;;;;;;16.92;76.83;97508.19;1795121;79;21143;-66
2021/05/01 08:23:33;;;;;;;4.37;3.22;;;;;;;17.03;77.45;97506.83;1795408;79;21147;-66
2021/05/01 08:26:04;;;;;;;3.67;2.37;;;;;;;17.15;76.57;97506.59;1795288;79;21144;-73
2021/05/01 08:28:35;;;;;;;6.97;2.83;;;;;;;17.27;76.29;97509.47;1795181;80;21613;-73
2021/05/01 08:31:03;;;;;;;6.15;2.80;;;;;;;17.44;75.49;97504.98;1795270;80;21530;-73
2021/05/01 08:33:32;;;;;;;1.42;1.00;;;;;;;17.68;74.26;97502.36;1795080;80;21214;-73
2021/05/01 08:36:00;;;;;;;1.40;0.82;;;;;;;17.90;64.47;97478.86;1795041;80;21472;-72
2021/05/01 08:38:32;;;;;;;3.27;1.02;;;;;;;18.13;62.39;97485.03;1795157;80;21138;-72
2021/05/01 08:41:00;;;;;;;2.05;0.50;;;;;;;18.24;60.41;97483.14;1794906;80;21159;-73
2021/05/01 08:43:28;;;;;;;0.90;0.78;;;;;;;18.42;60.83;97482.01;1795138;79;21134;-72
2021/05/01 08:45:57;;;;;;;1.92;0.98;;;;;;;18.65;61.01;97472.39;1795104;80;21226;-66
2021/05/01 08:48:26;;;;;;;2.02;1.00;;;;;;;18.90;61.14;97483.08;1795221;79;21862;-69
2021/05/01 08:51:03;;;;;;;1.40;0.90;;;;;;;19.15;61.93;97474.78;1795377;80;21145;-73
2021/05/01 08:53:33;;;;;;;1.95;0.80;;;;;;;19.33;60.37;97464.40;1795104;79;21159;-73
2021/05/01 08:56:01;;;;;;;1.90;0.90;;;;;;;19.49;59.96;97459.69;1795317;79;21148;-72
2021/05/01 08:58:30;;;;;;;5.65;1.10;;;;;;;19.68;60.80;97449.55;1795294;79;21180;-72
2021/05/01 09:01:00;;;;;;;1.30;1.17;;;;;;;19.88;58.87;97455.50;1795248;80;21144;-73
2021/05/01 09:03:28;;;;;;;3.50;2.12;;;;;;;20.14;60.71;97445.25;1795035;79;21145;-72
2021/05/01 09:05:59;;;;;;;5.05;2.17;;;;;;;20.07;63.79;97429.50;1795169;79;21112;-73
2021/05/01 09:08:27;;;;;;;2.30;1.50;;;;;;;20.15;63.72;97432.37;1805040;78;21131;-73
2021/05/01 09:10:55;;;;;;;1.25;1.10;;;;;;;20.46;62.58;97431.52;1806841;79;21136;-72
2021/05/01 09:13:27;;;;;;;2.77;1.45;;;;;;;20.53;59.03;97433.57;1807056;79;21154;-73
2021/05/01 09:16:02;;;;;;;2.10;1.15;;;;;;;20.60;59.10;97425.08;1806958;79;21135;-73
2021/05/01 09:18:58;;;;;;;2.35;1.35;;;;;;;20.92;58.24;97429.19;1807021;79;21556;-73
2021/05/01 09:21:30;;;;;;;1.40;1.00;;;;;;;21.03;55.44;97419.20;1807075;79;21136;-72
2021/05/01 09:23:58;;;;;;;3.30;1.50;;;;;;;21.06;54.46;97416.11;1806932;79;21367;-72
2021/05/01 09:26:40;;;;;;;4.70;2.60;;;;;;;21.14;53.35;97401.83;1807011;79;21183;-72
2021/05/01 09:29:10;;;;;;;13.55;6.90;;;;;;;21.28;53.58;97398.78;1806833;78;21100;-72
2021/05/01 09:31:48;;;;;;;3.20;1.75;;;;;;;21.48;53.76;97401.16;1806703;79;21119;-74
2021/05/01 09:34:16;;;;;;;4.05;1.55;;;;;;;21.80;53.31;97389.81;1813284;79;21147;-73
2021/05/01 09:36:45;;;;;;;2.10;1.30;;;;;;;21.87;52.60;97385.73;1806956;79;21584;-70
2021/05/01 09:39:14;;;;;;;2.00;1.30;;;;;;;21.88;51.07;97382.06;1787006;79;21131;-70
2021/05/01 09:41:50;;;;;;;3.52;1.32;;;;;;;22.01;50.95;97384.53;1807037;79;21150;-71
2021/05/01 09:44:17;;;;;;;2.10;1.35;;;;;;;22.28;48.98;97388.33;1806514;79;21556;-68
2021/05/01 09:46:50;;;;;;;3.55;1.70;;;;;;;22.75;49.05;97386.98;1806816;79;21147;-68
2021/05/01 09:49:29;;;;;;;2.17;1.10;;;;;;;23.06;47.86;97386.03;1806974;79;21214;-69
2021/05/01 09:52:05;;;;;;;2.55;1.50;;;;;;;23.38;47.66;97381.59;1806927;78;21592;-71
2021/05/01 09:54:39;;;;;;;4.17;1.22;;;;;;;23.66;47.62;97384.21;1812431;79;21148;-71
2021/05/01 09:57:14;;;;;;;7.08;1.27;;;;;;;23.77;47.58;97380.71;1806901;79;21142;-71
2021/05/01 09:59:53;;;;;;;1.37;1.27;;;;;;;23.81;46.29;97379.16;1806804;79;21203;-70
2021/05/01 10:02:34;;;;;;;1.87;0.98;;;;;;;24.18;45.66;97378.19;1806854;79;21146;-71
2021/05/01 10:05:14;;;;;;;2.42;1.27;;;;;;;24.11;45.86;97369.56;1806748;78;21138;-71
2021/05/01 10:07:50;;;;;;;2.67;1.57;;;;;;;24.02;45.22;97361.73;1806734;79;21619;-68
2021/05/01 10:10:18;;;;;;;3.17;1.47;;;;;;;23.69;45.85;97359.09;1806842;79;21571;-67
2021/05/01 10:12:48;;;;;;;3.25;1.10;;;;;;;23.90;46.20;97361.00;1806955;78;21203;-68
2021/05/01 10:15:24;;;;;;;1.98;1.02;;;;;;;23.64;45.43;97346.55;1806860;79;21144;-67
2021/05/01 10:17:54;;;;;;;3.10;1.30;;;;;;;23.54;46.05;97362.30;1806942;79;21171;-67
2021/05/01 10:20:23;;;;;;;2.33;1.30;;;;;;;23.31;46.32;97364.49;1806873;78;21175;-67
2021/05/01 10:22:51;;;;;;;3.50;0.98;;;;;;;23.27;46.90;97367.88;1806831;79;21183;-67
2021/05/01 10:25:25;;;;;;;1.90;1.20;;;;;;;23.43;46.38;97357.84;1806841;79;21120;-67
2021/05/01 10:28:21;;;;;;;1.70;1.20;;;;;;;23.29;47.11;97361.81;1806760;79;21167;-71
2021/05/01 10:30:57;;;;;;;2.65;1.47;;;;;;;23.69;46.16;97351.14;1806724;78;21167;-71
2021/05/01 10:33:31;;;;;;;2.27;1.17;;;;;;;24.02;45.38;97366.52;1807143;79;21127;-71
2021/05/01 10:36:28;;;;;;;2.30;1.20;;;;;;;23.94;45.58;97362.94;1807019;79;21600;-72
2021/05/01 10:39:06;;;;;;;2.58;1.25;;;;;;;23.74;44.81;97371.08;1813071;79;21143;-72
2021/05/01 10:41:36;;;;;;;4.40;1.70;;;;;;;23.72;44.82;97369.21;1807137;78;21132;-72
2021/05/01 10:44:07;;;;;;;3.65;2.25;;;;;;;24.04;44.77;97375.56;1806886;79;21187;-71
2021/05/01 10:46:43;;;;;;;2.62;1.60;;;;;;;24.14;43.90;97369.11;1806928;79;21592;-71
2021/05/01 10:49:29;;;;;;;4.50;1.42;;;;;;;24.27;43.40;97355.52;1779428;80;21188;-71
2021/05/01 10:51:57;;;;;;;1.85;1.15;;;;;;;24.13;43.60;97355.00;1778875;80;21131;-71
2021/05/01 10:54:26;;;;;;;2.87;0.93;;;;;;;24.01;43.54;97352.96;1779439;80;21157;-72
2021/05/01 10:56:57;;;;;;;3.77;1.22;;;;;;;24.21;43.00;97350.36;1779515;80;21156;-72
2021/05/01 10:59:29;;;;;;;3.55;1.37;;;;;;;24.44;42.57;97353.61;1779473;80;21136;-67
2021/05/01 11:02:01;;;;;;;1.62;1.00;;;;;;;24.81;42.64;97351.16;1779740;80;21645;-65
2021/05/01 11:04:33;;;;;;;2.20;0.93;;;;;;;24.79;44.64;97363.06;1779587;80;21652;-67
2021/05/01 11:07:21;;;;;;;4.05;1.15;;;;;;;25.04;42.92;97363.41;1779655;80;21632;-70
2021/05/01 11:09:51;;;;;;;2.45;1.22;;;;;;;25.02;41.16;97357.52;1779560;80;21610;-71
2021/05/01 11:12:24;;;;;;;1.57;1.00;;;;;;;24.96;40.49;97350.03;1779602;80;21148;-67
2021/05/01 11:15:02;;;;;;;2.90;1.00;;;;;;;25.02;41.14;97343.72;1779341;80;21846;-66
2021/05/01 11:17:44;;;;;;;2.33;1.35;;;;;;;25.38;42.39;97335.58;1779485;80;21561;-71
2021/05/01 11:20:19;;;;;;;1.95;1.10;;;;;;;25.27;41.21;97338.39;1779431;80;21148;-71
2021/05/01 11:22:52;;;;;;;3.30;1.12;;;;;;;25.81;40.40;97333.31;1779578;80;21152;-68
2021/05/01 11:25:22;;;;;;;4.45;1.10;;;;;;;26.78;40.04;97342.67;1779514;80;21151;-66
2021/05/01 11:27:53;;;;;;;0.95;0.60;;;;;;;27.60;39.21;97334.64;1779228;80;21167;-68
2021/05/01 11:30:28;;;;;;;3.22;1.00;;;;;;;28.42;37.74;97338.03;1779534;80;21507;-68
2021/05/01 11:32:57;;;;;;;1.80;1.00;;;;;;;28.67;33.29;97325.41;1779359;80;21128;-68
2021/05/01 11:35:27;;;;;;;5.08;1.22;;;;;;;28.30;33.75;97317.78;1779626;80;21680;-70
2021/05/01 11:38:01;;;;;;;1.40;0.90;;;;;;;28.40;33.93;97323.64;1779613;80;21149;-68
2021/05/01 11:40:34;;;;;;;3.08;1.40;;;;;;;29.21;31.94;97319.27;1779692;80;21152;-68
2021/05/01 11:43:04;;;;;;;1.22;0.82;;;;;;;28.78;32.86;97322.18;1779600;80;21117;-68
2021/05/01 11:46:10;;;;;;;3.52;1.10;;;;;;;29.05;32.58;97327.12;1779622;80;21598;-68
2021/05/01 11:48:39;;;;;;;2.98;1.22;;;;;;;28.92;32.56;97327.17;1772945;80;21554;-68
2021/05/01 11:51:11;;;;;;;4.87;1.72;;;;;;;28.76;32.17;97321.11;1768186;81;21132;-72